Stations météo

réclame
Mon MeteoGroup
Bielsa, Espagne (8103): Température de l'air & dewpoint: 18.10.2017 00:00:00 - 24.10.2017 00:00:00 (CEST)Bielsa, Espagne (8103): Vitesse du vent & gusts: 18.10.2017 00:00:00 - 24.10.2017 00:00:00 (CEST)Bielsa, Espagne (8103): Direction du vent: 18.10.2017 00:00:00 - 24.10.2017 00:00:00 (CEST)Bielsa, Espagne (8103): visibility: 18.10.2017 00:00:00 - 24.10.2017 00:00:00 (CEST)Bielsa, Espagne (8103): Ensoleillement: 18.10.2017 00:00:00 - 24.10.2017 00:00:00 (CEST)Bielsa, Espagne (8103): Quantités de précipitations: 18.10.2017 00:00:00 - 24.10.2017 00:00:00 (CEST)
Date & Time tt [°C] td [°C] ff [km/h] ff [knt] fx [km/h] fx [knt] dd vv [km] sd [min] rr [mm]
24.10.2017 00:00:00 9,0 4,8 3 2 21 11 NW 20 0 0,0
23.10.2017 23:00:00 10,9 4,4 5 3 19 11 WNW 20 0 0,0
23.10.2017 22:00:00 11,4 4,2 4 2 26 14 WNW 20 0 0,0
23.10.2017 21:00:00 12,8 3,5 9 5 24 13 NNW 20 0 0,0
23.10.2017 20:00:00 13,4 2,9 7 4 24 13 NNW 20 0 -
23.10.2017 19:00:00 14,8 2,7 10 5 23 12 NNW 20 0 0,0
23.10.2017 18:00:00 16,4 1,3 8 4 30 16 NW 20 0 0,0
23.10.2017 17:00:00 17,4 1,4 7 4 30 16 WNW 20 0 0,0
23.10.2017 16:00:00 19,7 1,2 11 6 31 17 NW 20 48 0,0
23.10.2017 15:00:00 19,9 4,0 5 3 15 8 E 20 60 0,0
23.10.2017 14:00:00 17,8 3,3 5 3 15 8 ESE 20 43 -
23.10.2017 13:00:00 16,1 2,2 5 3 17 9 ESE 20 60 0,0
23.10.2017 12:00:00 12,4 -0,4 5 3 16 9 ESE 14 60 0,0
23.10.2017 11:00:00 8,0 1,6 2 1 6 4 S 20 43 0,0
23.10.2017 10:00:00 2,9 0,8 1 1 5 3 NE 20 0 0,0
23.10.2017 09:00:00 3,2 0,4 3 1 15 8 WNW 20 0 0,0
23.10.2017 08:00:00 3,3 1,2 3 1 17 9 NE 20 0 -
23.10.2017 07:00:00 4,0 1,2 2 1 16 8 WNW 20 0 0,0
23.10.2017 06:00:00 4,3 1,8 1 1 16 8 NE 20 0 0,0
23.10.2017 05:00:00 5,2 2,4 1 1 14 8 NNE 20 0 0,0
23.10.2017 04:00:00 5,6 1,2 2 1 12 7 NNW 20 0 0,0
23.10.2017 03:00:00 5,5 1,3 3 2 16 9 NNW 20 0 0,0
23.10.2017 02:00:00 5,0 1,0 1 1 14 8 NNW 20 0 -
23.10.2017 01:00:00 5,2 0,0 3 2 15 8 WNW 20 0 0,0
23.10.2017 00:00:00 5,5 0,5 2 1 17 9 NW 20 0 0,0
22.10.2017 23:00:00 6,8 0,5 7 4 16 8 NW 8 0 0,0
22.10.2017 22:00:00 6,9 1,6 4 2 13 7 NW 20 0 0,0
22.10.2017 21:00:00 10,6 0,4 6 3 32 18 NW 20 0 0,0
22.10.2017 20:00:00 11,3 0,1 12 7 41 22 NW 20 0 -
22.10.2017 19:00:00 12,1 0,3 15 8 38 20 NW 20 0 0,0
22.10.2017 18:00:00 12,9 -0,7 12 7 39 21 NW 20 0 0,0
22.10.2017 17:00:00 14,1 -2,7 12 6 29 16 NW 20 0 0,0
22.10.2017 16:00:00 15,3 -0,4 5 3 21 11 W 20 46 0,0
22.10.2017 15:00:00 16,5 0,2 8 5 38 21 WNW 20 60 0,0
22.10.2017 14:00:00 15,5 -0,3 18 10 39 21 NW 20 60 -
22.10.2017 13:00:00 15,3 0,0 15 8 36 19 NW 20 60 0,0
22.10.2017 12:00:00 13,8 0,1 17 9 37 20 NW 20 60 0,0
22.10.2017 11:00:00 12,5 0,0 16 9 35 19 NW 20 41 0,0
22.10.2017 10:00:00 4,2 2,6 1 1 6 3 NE 20 0 0,0
22.10.2017 09:00:00 3,8 2,2 1 1 14 7 SSW 20 0 0,0
22.10.2017 08:00:00 3,8 2,0 2 1 8 5 SSE 20 0 -
22.10.2017 07:00:00 4,9 1,6 5 3 22 12 NW 20 0 0,0
22.10.2017 06:00:00 5,5 2,5 3 1 24 13 W 20 0 0,0
22.10.2017 05:00:00 6,9 3,2 6 3 21 11 NW 20 0 0,0
22.10.2017 04:00:00 8,0 4,0 10 5 21 11 N 20 0 0,0
22.10.2017 03:00:00 8,5 4,9 7 4 26 14 NNW 20 0 0,0
22.10.2017 02:00:00 6,9 5,9 4 2 16 9 NNW 20 0 -
22.10.2017 01:00:00 6,7 6,0 1 1 5 3 SSE 20 0 0,0
22.10.2017 00:00:00 8,0 7,1 2 1 8 4 NNW 20 0 0,0
21.10.2017 23:00:00 8,7 7,6 2 1 6 4 NNW 20 0 0,0
21.10.2017 22:00:00 9,8 8,4 1 1 10 5 N 20 0 0,0
21.10.2017 21:00:00 11,2 9,1 2 1 14 8 NW 20 0 0,0
21.10.2017 20:00:00 13,9 9,7 2 1 24 13 E 20 0 -
21.10.2017 19:00:00 15,0 10,4 2 1 13 7 S 20 0 0,0
21.10.2017 18:00:00 16,7 9,6 4 2 27 15 ESE 20 0 0,0
21.10.2017 17:00:00 17,5 9,7 6 4 27 14 ESE 20 0 0,0
21.10.2017 16:00:00 17,9 10,0 6 3 26 14 ESE 20 0 0,0
21.10.2017 15:00:00 18,3 10,2 9 5 32 17 ESE 20 10 0,0
21.10.2017 14:00:00 19,5 9,7 9 5 31 17 ESE 20 60 -
21.10.2017 13:00:00 17,9 9,8 3 2 13 7 ESE 20 60 0,0
21.10.2017 12:00:00 15,8 9,2 3 2 8 5 ESE 20 60 0,0
21.10.2017 11:00:00 10,4 9,6 3 1 7 4 SSE 20 41 0,0
21.10.2017 10:00:00 5,9 5,6 1 1 16 9 ESE 20 0 0,0
21.10.2017 09:00:00 5,8 5,5 1 1 12 6 WNW 20 0 0,0
21.10.2017 08:00:00 6,1 5,8 3 2 15 8 NW 20 0 -
21.10.2017 07:00:00 6,0 5,7 3 2 8 5 WNW 20 0 0,0
21.10.2017 06:00:00 5,7 5,4 1 1 13 7 NNW 20 0 0,0
21.10.2017 05:00:00 5,9 5,6 2 1 9 5 ESE 20 0 0,0
21.10.2017 04:00:00 5,9 5,6 2 1 5 3 NW 20 0 0,0
21.10.2017 03:00:00 6,5 6,2 3 2 13 7 WNW 20 0 0,0
21.10.2017 02:00:00 6,5 6,1 1 1 13 7 N 20 0 -
21.10.2017 01:00:00 6,9 6,5 3 1 6 4 NW 20 0 0,0
21.10.2017 00:00:00 7,5 6,9 0 0 13 7 N 20 0 0,0
20.10.2017 23:00:00 7,8 7,2 2 1 7 4 NNW 20 0 0,0
20.10.2017 22:00:00 8,5 7,7 1 1 11 6 NW 20 0 0,0
20.10.2017 21:00:00 9,3 8,1 0 0 6 4 N 20 0 0,0
20.10.2017 20:00:00 10,4 8,8 1 1 7 4 N 20 0 -
20.10.2017 19:00:00 11,8 9,7 3 1 10 5 NW 20 0 0,0
20.10.2017 18:00:00 13,8 10,2 3 2 11 6 NW 20 0 0,0
20.10.2017 17:00:00 16,6 8,8 5 3 24 13 ESE 20 0 0,0
20.10.2017 16:00:00 16,7 8,7 5 3 26 14 ESE 17 0 0,0
20.10.2017 15:00:00 17,2 8,4 6 3 24 13 ESE 20 15 0,0
20.10.2017 14:00:00 17,8 7,5 10 5 29 16 SSE 20 53 -
20.10.2017 13:00:00 16,6 7,8 8 4 20 11 SSE 20 60 0,0
20.10.2017 12:00:00 13,4 8,1 2 1 8 5 NNW 20 32 0,0
20.10.2017 11:00:00 11,3 8,7 1 1 8 4 ENE 20 30 0,0
20.10.2017 10:00:00 8,5 7,7 1 1 12 6 NNW 20 0 0,0
20.10.2017 09:00:00 6,5 5,9 3 1 13 7 NW 20 0 0,0
20.10.2017 08:00:00 6,4 5,7 4 2 16 9 WNW 20 0 -
20.10.2017 07:00:00 5,8 5,4 3 2 13 7 WNW 20 0 0,0
20.10.2017 06:00:00 6,4 5,8 4 2 14 8 W 20 0 0,0
20.10.2017 05:00:00 6,4 6,0 1 1 10 6 WNW 20 0 0,0
20.10.2017 04:00:00 6,7 6,1 1 1 15 8 WNW 20 0 0,0
20.10.2017 03:00:00 6,9 6,3 1 1 9 5 NW 20 0 0,0
20.10.2017 02:00:00 7,4 6,5 4 2 15 8 WNW 20 0 -
20.10.2017 01:00:00 7,2 6,3 1 1 20 11 N 20 0 0,0
20.10.2017 00:00:00 7,5 6,9 5 3 24 13 NW 20 0 0,0
19.10.2017 23:00:00 8,1 7,2 2 1 20 11 N 20 0 0,0
19.10.2017 22:00:00 9,0 7,8 8 4 20 11 N 20 0 0,0
19.10.2017 21:00:00 9,2 8,0 2 1 19 10 NW 20 0 0,0
19.10.2017 20:00:00 10,2 9,3 1 1 16 9 ESE 20 0 -
19.10.2017 19:00:00 11,5 10,1 1 1 6 3 NW 20 0 0,0
19.10.2017 18:00:00 12,4 10,1 1 1 12 7 NW 20 0 0,0
19.10.2017 17:00:00 13,2 9,5 5 3 16 8 SE 20 0 0,0
19.10.2017 16:00:00 13,3 9,6 4 2 18 10 ESE 20 0 0,0
19.10.2017 15:00:00 14,1 9,1 5 3 22 12 SE 20 42 0,0
19.10.2017 14:00:00 13,1 9,0 4 2 8 4 SSE 20 18 -
19.10.2017 13:00:00 11,1 9,7 2 1 9 5 ESE 18 1 0,0
19.10.2017 12:00:00 10,5 9,9 4 2 9 5 SE 20 4 0,2
19.10.2017 11:00:00 9,7 9,4 5 3 12 6 SSE 15 0 0,8
19.10.2017 10:00:00 9,0 8,7 0 0 10 5 N 15 0 0,0
19.10.2017 09:00:00 8,9 8,6 3 1 12 6 NNW 20 0 0,2
19.10.2017 08:00:00 - - - - - - - - - -
19.10.2017 07:00:00 - - - - - - - - - -
19.10.2017 06:00:00 - - - - - - - - - -
19.10.2017 05:00:00 8,5 8,2 0 0 5 3 N - 0 0,4
19.10.2017 04:00:00 8,4 8,1 2 1 6 3 N - 0 0,2
19.10.2017 03:00:00 8,2 7,9 1 1 5 3 SSW - 0 0,2
19.10.2017 02:00:00 7,9 7,6 1 1 6 4 ESE - 0 -
19.10.2017 01:00:00 7,5 7,2 1 1 4 2 NNW - 0 0,0
19.10.2017 00:00:00 7,3 6,9 1 1 4 2 SE - 0 0,0
18.10.2017 23:00:00 7,2 6,8 1 1 13 7 WNW - 0 0,0
18.10.2017 22:00:00 7,1 6,4 7 4 28 15 N - 0 0,8
18.10.2017 21:00:00 7,4 6,3 9 5 25 13 N 11 0 2,8
18.10.2017 20:00:00 8,0 7,3 12 7 30 16 NW 18 0 -
18.10.2017 19:00:00 7,8 7,2 11 6 25 14 N 2,6 0 6,2
18.10.2017 18:00:00 7,9 7,2 10 5 32 18 NNW 4,8 0 7,6
18.10.2017 17:00:00 8,4 6,9 10 6 29 16 NW 8 0 4,0
18.10.2017 16:00:00 8,9 8,5 4 2 15 8 N 7 0 5,0
18.10.2017 15:00:00 9,5 8,4 3 2 62 33 SE 2,8 0 10,0
18.10.2017 14:00:00 9,7 8,9 13 7 35 19 N 6 0 -
18.10.2017 13:00:00 11,2 9,5 14 7 42 23 NW 7 0 5,2
18.10.2017 12:00:00 11,7 11,2 4 2 16 9 SSE 18 0 1,8
18.10.2017 11:00:00 11,6 11,1 4 2 16 9 E 6 0 0,6
18.10.2017 10:00:00 11,3 10,7 4 2 27 15 ESE 10 0 1,6
18.10.2017 09:00:00 11,4 10,5 5 3 19 10 SE 20 0 1,6
18.10.2017 08:00:00 11,2 10,4 6 3 25 13 SE 6 0 -
18.10.2017 07:00:00 11,2 10,6 4 2 20 11 SSE 7 0 1,6
18.10.2017 06:00:00 11,3 10,8 4 2 16 9 E 3,3 0 0,2
18.10.2017 05:00:00 11,4 10,6 3 1 7 4 SE 4,3 0 0,2
18.10.2017 04:00:00 11,7 10,9 1 1 6 3 ESE 4,9 0 0,4
18.10.2017 03:00:00 12,3 11,0 2 1 32 17 S 3,1 0 1,0
18.10.2017 02:00:00 13,7 10,9 7 4 25 13 ESE 3,8 0 -
18.10.2017 01:00:00 13,9 10,3 3 2 29 16 ESE 20 0 0,0
18.10.2017 00:00:00 13,9 9,9 8 4 24 13 SE 20 0 0,0

tt = Température de l'air
td = dewpoint
ff = Vitesse du vent
fx = gusts
dd = Direction du vent
vv = visibility
sd = Ensoleillement
rr = Quantités de précipitations

stations d'obs. à proximité